sensor_id;sensor_type;location;lat;lon;timestamp;P1;durP1;ratioP1;P2;durP2;ratioP2
55423;SDS011;41294;42.666;23.350;2023-03-17T00:09:17;8.17;;;5.47;;
55423;SDS011;41294;42.666;23.350;2023-03-17T01:03:37;6.57;;;5.37;;
55423;SDS011;41294;42.666;23.350;2023-03-17T01:06:04;6.27;;;5.43;;
55423;SDS011;41294;42.666;23.350;2023-03-17T01:08:31;6.77;;;5.17;;
55423;SDS011;41294;42.666;23.350;2023-03-17T01:10:57;6.37;;;5.23;;
55423;SDS011;41294;42.666;23.350;2023-03-17T01:13:23;5.10;;;4.60;;
55423;SDS011;41294;42.666;23.350;2023-03-17T01:15:49;5.40;;;4.90;;
55423;SDS011;41294;42.666;23.350;2023-03-17T01:18:16;5.87;;;4.83;;
55423;SDS011;41294;42.666;23.350;2023-03-17T01:20:44;6.57;;;5.13;;
55423;SDS011;41294;42.666;23.350;2023-03-17T01:23:10;8.13;;;5.17;;
55423;SDS011;41294;42.666;23.350;2023-03-17T01:25:36;5.10;;;4.57;;
55423;SDS011;41294;42.666;23.350;2023-03-17T01:28:04;6.67;;;5.30;;
55423;SDS011;41294;42.666;23.350;2023-03-17T01:30:34;5.57;;;4.50;;
55423;SDS011;41294;42.666;23.350;2023-03-17T01:33:02;5.30;;;4.63;;
55423;SDS011;41294;42.666;23.350;2023-03-17T01:35:28;5.43;;;4.63;;
55423;SDS011;41294;42.666;23.350;2023-03-17T01:37:55;6.07;;;5.43;;
55423;SDS011;41294;42.666;23.350;2023-03-17T01:40:22;4.90;;;4.30;;
55423;SDS011;41294;42.666;23.350;2023-03-17T01:42:53;5.27;;;4.77;;
55423;SDS011;41294;42.666;23.350;2023-03-17T01:48:33;5.07;;;4.40;;
55423;SDS011;41294;42.666;23.350;2023-03-17T01:54:22;4.97;;;4.43;;
55423;SDS011;41294;42.666;23.350;2023-03-17T01:57:01;5.67;;;4.97;;
55423;SDS011;41294;42.666;23.350;2023-03-17T01:59:32;4.60;;;4.00;;
55423;SDS011;41294;42.666;23.350;2023-03-17T02:02:04;5.57;;;4.70;;
55423;SDS011;41294;42.666;23.350;2023-03-17T02:04:32;6.43;;;4.30;;
55423;SDS011;41294;42.666;23.350;2023-03-17T02:06:59;5.13;;;4.63;;
55423;SDS011;41294;42.666;23.350;2023-03-17T02:09:27;5.73;;;4.77;;
55423;SDS011;41294;42.666;23.350;2023-03-17T02:11:53;6.87;;;4.40;;
55423;SDS011;41294;42.666;23.350;2023-03-17T02:14:20;5.30;;;4.53;;
55423;SDS011;41294;42.666;23.350;2023-03-17T02:16:45;6.07;;;4.73;;
55423;SDS011;41294;42.666;23.350;2023-03-17T02:19:11;5.00;;;4.30;;
55423;SDS011;41294;42.666;23.350;2023-03-17T02:21:39;5.37;;;4.47;;
55423;SDS011;41294;42.666;23.350;2023-03-17T02:24:07;6.40;;;4.47;;
55423;SDS011;41294;42.666;23.350;2023-03-17T02:26:37;5.90;;;4.50;;
55423;SDS011;41294;42.666;23.350;2023-03-17T02:29:03;4.17;;;3.70;;
55423;SDS011;41294;42.666;23.350;2023-03-17T02:31:29;5.80;;;4.20;;
55423;SDS011;41294;42.666;23.350;2023-03-17T02:33:55;4.87;;;4.47;;
55423;SDS011;41294;42.666;23.350;2023-03-17T02:36:20;4.80;;;4.30;;
55423;SDS011;41294;42.666;23.350;2023-03-17T02:38:46;4.43;;;4.03;;
55423;SDS011;41294;42.666;23.350;2023-03-17T02:41:11;4.13;;;3.73;;
55423;SDS011;41294;42.666;23.350;2023-03-17T02:43:37;4.30;;;3.90;;
55423;SDS011;41294;42.666;23.350;2023-03-17T02:46:03;4.67;;;4.20;;
55423;SDS011;41294;42.666;23.350;2023-03-17T02:48:29;5.27;;;4.17;;
55423;SDS011;41294;42.666;23.350;2023-03-17T02:50:55;4.60;;;4.20;;
55423;SDS011;41294;42.666;23.350;2023-03-17T02:53:21;5.37;;;4.07;;
55423;SDS011;41294;42.666;23.350;2023-03-17T02:55:46;5.53;;;4.37;;
55423;SDS011;41294;42.666;23.350;2023-03-17T02:58:12;4.40;;;4.00;;
55423;SDS011;41294;42.666;23.350;2023-03-17T03:00:37;4.27;;;3.87;;
55423;SDS011;41294;42.666;23.350;2023-03-17T03:03:04;6.23;;;4.13;;
55423;SDS011;41294;42.666;23.350;2023-03-17T03:05:30;4.60;;;4.10;;
55423;SDS011;41294;42.666;23.350;2023-03-17T03:07:56;4.87;;;4.47;;
55423;SDS011;41294;42.666;23.350;2023-03-17T03:10:21;6.27;;;4.13;;
55423;SDS011;41294;42.666;23.350;2023-03-17T03:12:46;4.43;;;3.60;;
55423;SDS011;41294;42.666;23.350;2023-03-17T03:15:12;4.40;;;4.00;;
55423;SDS011;41294;42.666;23.350;2023-03-17T03:17:38;4.67;;;4.27;;
55423;SDS011;41294;42.666;23.350;2023-03-17T03:20:03;4.57;;;4.07;;
55423;SDS011;41294;42.666;23.350;2023-03-17T03:22:29;4.60;;;4.03;;
55423;SDS011;41294;42.666;23.350;2023-03-17T03:24:55;4.80;;;4.40;;
55423;SDS011;41294;42.666;23.350;2023-03-17T03:27:20;5.67;;;4.30;;
55423;SDS011;41294;42.666;23.350;2023-03-17T03:29:46;3.93;;;3.40;;
55423;SDS011;41294;42.666;23.350;2023-03-17T03:32:11;4.40;;;3.97;;
55423;SDS011;41294;42.666;23.350;2023-03-17T03:34:37;5.17;;;4.20;;
55423;SDS011;41294;42.666;23.350;2023-03-17T03:37:02;4.17;;;3.77;;
55423;SDS011;41294;42.666;23.350;2023-03-17T03:39:28;5.03;;;4.10;;
55423;SDS011;41294;42.666;23.350;2023-03-17T03:41:53;6.20;;;4.07;;
55423;SDS011;41294;42.666;23.350;2023-03-17T03:44:22;5.50;;;4.53;;
55423;SDS011;41294;42.666;23.350;2023-03-17T03:46:48;5.07;;;4.40;;
55423;SDS011;41294;42.666;23.350;2023-03-17T03:49:13;5.33;;;4.83;;
55423;SDS011;41294;42.666;23.350;2023-03-17T03:51:38;5.60;;;4.53;;
55423;SDS011;41294;42.666;23.350;2023-03-17T03:54:04;4.53;;;4.13;;
55423;SDS011;41294;42.666;23.350;2023-03-17T03:56:30;4.57;;;4.17;;
55423;SDS011;41294;42.666;23.350;2023-03-17T03:58:55;4.53;;;4.13;;
55423;SDS011;41294;42.666;23.350;2023-03-17T04:01:21;4.70;;;4.30;;
55423;SDS011;41294;42.666;23.350;2023-03-17T04:03:46;4.77;;;4.07;;
55423;SDS011;41294;42.666;23.350;2023-03-17T04:06:11;4.90;;;4.10;;
55423;SDS011;41294;42.666;23.350;2023-03-17T04:08:37;4.87;;;4.37;;
55423;SDS011;41294;42.666;23.350;2023-03-17T04:11:02;4.77;;;3.73;;
55423;SDS011;41294;42.666;23.350;2023-03-17T04:13:28;4.70;;;4.13;;
55423;SDS011;41294;42.666;23.350;2023-03-17T04:15:53;4.53;;;3.93;;
55423;SDS011;41294;42.666;23.350;2023-03-17T04:18:19;4.47;;;4.07;;
55423;SDS011;41294;42.666;23.350;2023-03-17T04:20:44;4.30;;;3.83;;
55423;SDS011;41294;42.666;23.350;2023-03-17T04:23:10;7.33;;;4.57;;
55423;SDS011;41294;42.666;23.350;2023-03-17T04:25:37;4.93;;;4.43;;
55423;SDS011;41294;42.666;23.350;2023-03-17T04:28:03;5.37;;;4.10;;
55423;SDS011;41294;42.666;23.350;2023-03-17T04:30:28;5.30;;;4.80;;
55423;SDS011;41294;42.666;23.350;2023-03-17T04:32:54;4.90;;;4.50;;
55423;SDS011;41294;42.666;23.350;2023-03-17T04:35:20;5.10;;;4.33;;
55423;SDS011;41294;42.666;23.350;2023-03-17T04:37:48;6.20;;;4.27;;
55423;SDS011;41294;42.666;23.350;2023-03-17T04:40:15;4.87;;;4.40;;
55423;SDS011;41294;42.666;23.350;2023-03-17T04:42:41;8.17;;;4.63;;
55423;SDS011;41294;42.666;23.350;2023-03-17T04:45:08;4.77;;;3.90;;
55423;SDS011;41294;42.666;23.350;2023-03-17T04:47:35;5.17;;;4.43;;
55423;SDS011;41294;42.666;23.350;2023-03-17T04:50:07;4.87;;;4.40;;
55423;SDS011;41294;42.666;23.350;2023-03-17T04:52:34;5.87;;;4.67;;
55423;SDS011;41294;42.666;23.350;2023-03-17T04:55:01;4.40;;;4.00;;
55423;SDS011;41294;42.666;23.350;2023-03-17T04:57:26;4.83;;;4.20;;
55423;SDS011;41294;42.666;23.350;2023-03-17T04:59:51;5.97;;;4.50;;
55423;SDS011;41294;42.666;23.350;2023-03-17T05:02:17;5.20;;;4.70;;
55423;SDS011;41294;42.666;23.350;2023-03-17T05:04:43;5.43;;;4.50;;
55423;SDS011;41294;42.666;23.350;2023-03-17T05:07:09;5.30;;;3.97;;
55423;SDS011;41294;42.666;23.350;2023-03-17T05:09:36;5.37;;;4.43;;
55423;SDS011;41294;42.666;23.350;2023-03-17T05:12:01;6.20;;;4.47;;
55423;SDS011;41294;42.666;23.350;2023-03-17T05:14:27;5.20;;;4.60;;
55423;SDS011;41294;42.666;23.350;2023-03-17T05:16:52;4.97;;;4.47;;
55423;SDS011;41294;42.666;23.350;2023-03-17T05:19:18;5.70;;;4.97;;
55423;SDS011;41294;42.666;23.350;2023-03-17T05:21:43;5.60;;;5.10;;
55423;SDS011;41294;42.666;23.350;2023-03-17T05:24:09;5.70;;;4.63;;
55423;SDS011;41294;42.666;23.350;2023-03-17T05:26:36;5.43;;;4.40;;
55423;SDS011;41294;42.666;23.350;2023-03-17T05:29:02;7.23;;;5.77;;
55423;SDS011;41294;42.666;23.350;2023-03-17T05:31:27;5.33;;;4.83;;
55423;SDS011;41294;42.666;23.350;2023-03-17T05:33:55;6.03;;;4.63;;
55423;SDS011;41294;42.666;23.350;2023-03-17T05:36:20;4.77;;;4.37;;
55423;SDS011;41294;42.666;23.350;2023-03-17T05:38:46;5.27;;;4.47;;
55423;SDS011;41294;42.666;23.350;2023-03-17T05:41:12;7.00;;;4.70;;
55423;SDS011;41294;42.666;23.350;2023-03-17T05:43:37;8.73;;;5.43;;
55423;SDS011;41294;42.666;23.350;2023-03-17T05:46:03;5.70;;;4.97;;
55423;SDS011;41294;42.666;23.350;2023-03-17T05:48:29;6.07;;;5.30;;
55423;SDS011;41294;42.666;23.350;2023-03-17T05:50:55;6.67;;;4.90;;
55423;SDS011;41294;42.666;23.350;2023-03-17T05:53:21;8.97;;;5.80;;
55423;SDS011;41294;42.666;23.350;2023-03-17T05:55:46;6.97;;;5.43;;
55423;SDS011;41294;42.666;23.350;2023-03-17T05:58:12;7.70;;;5.43;;
55423;SDS011;41294;42.666;23.350;2023-03-17T06:00:39;9.50;;;5.53;;
55423;SDS011;41294;42.666;23.350;2023-03-17T06:03:06;6.27;;;5.40;;
55423;SDS011;41294;42.666;23.350;2023-03-17T06:05:32;5.73;;;4.97;;
55423;SDS011;41294;42.666;23.350;2023-03-17T06:07:58;5.90;;;4.97;;
55423;SDS011;41294;42.666;23.350;2023-03-17T06:10:23;6.00;;;4.77;;
55423;SDS011;41294;42.666;23.350;2023-03-17T06:12:49;7.10;;;5.77;;
55423;SDS011;41294;42.666;23.350;2023-03-17T06:15:15;6.83;;;5.37;;
55423;SDS011;41294;42.666;23.350;2023-03-17T06:17:41;8.63;;;6.27;;
55423;SDS011;41294;42.666;23.350;2023-03-17T06:20:07;7.73;;;6.07;;
55423;SDS011;41294;42.666;23.350;2023-03-17T06:22:33;7.43;;;5.47;;
55423;SDS011;41294;42.666;23.350;2023-03-17T06:24:59;6.30;;;5.20;;
55423;SDS011;41294;42.666;23.350;2023-03-17T06:27:25;7.53;;;5.10;;
55423;SDS011;41294;42.666;23.350;2023-03-17T06:29:52;6.43;;;5.13;;
55423;SDS011;41294;42.666;23.350;2023-03-17T06:32:17;5.83;;;4.97;;
55423;SDS011;41294;42.666;23.350;2023-03-17T06:34:43;6.07;;;5.17;;
55423;SDS011;41294;42.666;23.350;2023-03-17T06:37:08;5.53;;;4.67;;
55423;SDS011;41294;42.666;23.350;2023-03-17T06:39:34;5.60;;;4.47;;
55423;SDS011;41294;42.666;23.350;2023-03-17T06:42:01;5.07;;;4.57;;
55423;SDS011;41294;42.666;23.350;2023-03-17T06:44:27;5.23;;;4.43;;
55423;SDS011;41294;42.666;23.350;2023-03-17T06:46:52;5.23;;;4.73;;
55423;SDS011;41294;42.666;23.350;2023-03-17T06:49:18;5.87;;;5.20;;
55423;SDS011;41294;42.666;23.350;2023-03-17T06:51:43;5.20;;;4.50;;
55423;SDS011;41294;42.666;23.350;2023-03-17T06:54:09;6.13;;;4.63;;
55423;SDS011;41294;42.666;23.350;2023-03-17T06:56:34;7.07;;;5.60;;
55423;SDS011;41294;42.666;23.350;2023-03-17T06:59:00;6.27;;;4.93;;
55423;SDS011;41294;42.666;23.350;2023-03-17T07:01:26;5.80;;;5.20;;
55423;SDS011;41294;42.666;23.350;2023-03-17T07:03:51;8.30;;;5.40;;
55423;SDS011;41294;42.666;23.350;2023-03-17T07:06:17;8.50;;;5.30;;
55423;SDS011;41294;42.666;23.350;2023-03-17T07:08:43;5.83;;;4.77;;
55423;SDS011;41294;42.666;23.350;2023-03-17T07:11:08;5.27;;;4.73;;
55423;SDS011;41294;42.666;23.350;2023-03-17T07:13:34;8.30;;;5.33;;
55423;SDS011;41294;42.666;23.350;2023-03-17T07:16:01;7.77;;;5.63;;
55423;SDS011;41294;42.666;23.350;2023-03-17T07:18:27;5.20;;;4.70;;
55423;SDS011;41294;42.666;23.350;2023-03-17T07:20:56;6.07;;;4.87;;
55423;SDS011;41294;42.666;23.350;2023-03-17T07:23:28;5.57;;;4.70;;
55423;SDS011;41294;42.666;23.350;2023-03-17T07:25:54;5.97;;;5.07;;
55423;SDS011;41294;42.666;23.350;2023-03-17T07:28:21;7.30;;;5.43;;
55423;SDS011;41294;42.666;23.350;2023-03-17T07:30:48;7.03;;;5.30;;
55423;SDS011;41294;42.666;23.350;2023-03-17T07:33:15;7.73;;;5.80;;
55423;SDS011;41294;42.666;23.350;2023-03-17T07:35:42;7.53;;;5.30;;
55423;SDS011;41294;42.666;23.350;2023-03-17T07:38:08;5.53;;;4.63;;
55423;SDS011;41294;42.666;23.350;2023-03-17T07:40:35;7.67;;;5.23;;
55423;SDS011;41294;42.666;23.350;2023-03-17T07:43:00;7.10;;;5.47;;
55423;SDS011;41294;42.666;23.350;2023-03-17T07:45:26;9.17;;;6.10;;
55423;SDS011;41294;42.666;23.350;2023-03-17T07:47:52;8.77;;;6.10;;
55423;SDS011;41294;42.666;23.350;2023-03-17T07:50:18;7.63;;;6.10;;
55423;SDS011;41294;42.666;23.350;2023-03-17T07:52:44;7.70;;;5.43;;
55423;SDS011;41294;42.666;23.350;2023-03-17T07:55:10;5.90;;;4.73;;
55423;SDS011;41294;42.666;23.350;2023-03-17T07:57:36;8.27;;;5.73;;
55423;SDS011;41294;42.666;23.350;2023-03-17T08:00:03;6.93;;;5.63;;
55423;SDS011;41294;42.666;23.350;2023-03-17T08:02:33;6.63;;;5.03;;
55423;SDS011;41294;42.666;23.350;2023-03-17T08:05:00;6.60;;;5.30;;
55423;SDS011;41294;42.666;23.350;2023-03-17T08:07:27;7.60;;;5.63;;
55423;SDS011;41294;42.666;23.350;2023-03-17T08:09:52;8.40;;;6.63;;
55423;SDS011;41294;42.666;23.350;2023-03-17T08:12:18;10.20;;;6.40;;
55423;SDS011;41294;42.666;23.350;2023-03-17T08:14:44;6.90;;;5.53;;
55423;SDS011;41294;42.666;23.350;2023-03-17T08:17:09;8.97;;;6.63;;
55423;SDS011;41294;42.666;23.350;2023-03-17T08:19:35;5.57;;;4.90;;
55423;SDS011;41294;42.666;23.350;2023-03-17T08:22:01;8.33;;;5.57;;
55423;SDS011;41294;42.666;23.350;2023-03-17T08:24:26;7.50;;;5.70;;
55423;SDS011;41294;42.666;23.350;2023-03-17T08:26:51;9.07;;;5.40;;
55423;SDS011;41294;42.666;23.350;2023-03-17T08:29:17;6.17;;;4.60;;
55423;SDS011;41294;42.666;23.350;2023-03-17T08:31:43;9.33;;;4.70;;
55423;SDS011;41294;42.666;23.350;2023-03-17T08:34:08;4.80;;;4.40;;
55423;SDS011;41294;42.666;23.350;2023-03-17T08:36:34;5.77;;;4.40;;
55423;SDS011;41294;42.666;23.350;2023-03-17T08:39:00;5.37;;;4.40;;
55423;SDS011;41294;42.666;23.350;2023-03-17T08:41:26;5.00;;;4.10;;
55423;SDS011;41294;42.666;23.350;2023-03-17T08:43:52;4.87;;;4.07;;
55423;SDS011;41294;42.666;23.350;2023-03-17T08:46:19;4.77;;;4.10;;
55423;SDS011;41294;42.666;23.350;2023-03-17T08:48:47;5.10;;;4.33;;
55423;SDS011;41294;42.666;23.350;2023-03-17T08:51:17;6.17;;;4.83;;
55423;SDS011;41294;42.666;23.350;2023-03-17T08:53:43;4.63;;;4.20;;
55423;SDS011;41294;42.666;23.350;2023-03-17T08:56:09;8.10;;;5.00;;
55423;SDS011;41294;42.666;23.350;2023-03-17T08:58:35;7.40;;;5.60;;
55423;SDS011;41294;42.666;23.350;2023-03-17T09:01:03;5.77;;;4.60;;
55423;SDS011;41294;42.666;23.350;2023-03-17T09:03:30;9.43;;;4.80;;
55423;SDS011;41294;42.666;23.350;2023-03-17T09:05:57;5.07;;;4.40;;
55423;SDS011;41294;42.666;23.350;2023-03-17T09:08:24;4.33;;;3.93;;
55423;SDS011;41294;42.666;23.350;2023-03-17T09:10:50;5.87;;;4.00;;
55423;SDS011;41294;42.666;23.350;2023-03-17T09:13:16;5.43;;;4.27;;
55423;SDS011;41294;42.666;23.350;2023-03-17T09:15:43;4.30;;;3.87;;
55423;SDS011;41294;42.666;23.350;2023-03-17T09:18:08;7.03;;;3.93;;
55423;SDS011;41294;42.666;23.350;2023-03-17T09:20:34;5.50;;;3.80;;
55423;SDS011;41294;42.666;23.350;2023-03-17T09:23:00;4.63;;;4.17;;
55423;SDS011;41294;42.666;23.350;2023-03-17T09:25:33;6.17;;;4.30;;
55423;SDS011;41294;42.666;23.350;2023-03-17T09:27:59;7.07;;;4.73;;
55423;SDS011;41294;42.666;23.350;2023-03-17T09:30:24;7.37;;;4.60;;
55423;SDS011;41294;42.666;23.350;2023-03-17T09:32:50;4.77;;;4.20;;
55423;SDS011;41294;42.666;23.350;2023-03-17T09:35:16;9.03;;;5.20;;
55423;SDS011;41294;42.666;23.350;2023-03-17T09:37:42;5.93;;;5.07;;
55423;SDS011;41294;42.666;23.350;2023-03-17T09:40:09;6.40;;;5.07;;
55423;SDS011;41294;42.666;23.350;2023-03-17T09:42:43;5.80;;;4.87;;
55423;SDS011;41294;42.666;23.350;2023-03-17T09:53:13;6.83;;;4.90;;
55423;SDS011;41294;42.666;23.350;2023-03-17T09:55:42;6.10;;;4.87;;
55423;SDS011;41294;42.666;23.350;2023-03-17T09:58:11;6.27;;;4.83;;
55423;SDS011;41294;42.666;23.350;2023-03-17T10:00:37;8.07;;;5.30;;
55423;SDS011;41294;42.666;23.350;2023-03-17T10:03:04;7.20;;;5.60;;
55423;SDS011;41294;42.666;23.350;2023-03-17T10:05:34;7.87;;;5.70;;
55423;SDS011;41294;42.666;23.350;2023-03-17T10:16:45;9.83;;;5.77;;
55423;SDS011;41294;42.666;23.350;2023-03-17T10:22:12;9.03;;;5.43;;
55423;SDS011;41294;42.666;23.350;2023-03-17T10:24:47;9.27;;;6.37;;
55423;SDS011;41294;42.666;23.350;2023-03-17T10:27:16;6.60;;;5.27;;
55423;SDS011;41294;42.666;23.350;2023-03-17T10:29:42;7.87;;;5.70;;
55423;SDS011;41294;42.666;23.350;2023-03-17T10:32:08;12.80;;;5.73;;
55423;SDS011;41294;42.666;23.350;2023-03-17T10:34:37;8.27;;;6.10;;
55423;SDS011;41294;42.666;23.350;2023-03-17T10:37:05;11.67;;;6.03;;
55423;SDS011;41294;42.666;23.350;2023-03-17T10:39:30;6.33;;;4.80;;
55423;SDS011;41294;42.666;23.350;2023-03-17T10:42:09;5.73;;;3.90;;
55423;SDS011;41294;42.666;23.350;2023-03-17T10:44:48;6.13;;;4.40;;
55423;SDS011;41294;42.666;23.350;2023-03-17T10:49:56;6.83;;;3.93;;
55423;SDS011;41294;42.666;23.350;2023-03-17T10:52:28;3.23;;;2.93;;
55423;SDS011;41294;42.666;23.350;2023-03-17T10:55:00;5.27;;;4.33;;
55423;SDS011;41294;42.666;23.350;2023-03-17T10:57:29;6.73;;;4.80;;
55423;SDS011;41294;42.666;23.350;2023-03-17T10:59:55;5.73;;;4.43;;
55423;SDS011;41294;42.666;23.350;2023-03-17T11:02:35;4.10;;;3.70;;
55423;SDS011;41294;42.666;23.350;2023-03-17T11:05:16;6.73;;;4.63;;
55423;SDS011;41294;42.666;23.350;2023-03-17T11:07:47;4.93;;;3.87;;
55423;SDS011;41294;42.666;23.350;2023-03-17T11:12:53;5.10;;;4.60;;
55423;SDS011;41294;42.666;23.350;2023-03-17T11:15:22;7.53;;;5.97;;
55423;SDS011;41294;42.666;23.350;2023-03-17T11:17:59;9.90;;;6.50;;
55423;SDS011;41294;42.666;23.350;2023-03-17T11:20:36;8.30;;;5.90;;
55423;SDS011;41294;42.666;23.350;2023-03-17T11:26:13;5.53;;;4.50;;
55423;SDS011;41294;42.666;23.350;2023-03-17T11:50:07;5.10;;;4.30;;
55423;SDS011;41294;42.666;23.350;2023-03-17T11:55:25;6.47;;;4.13;;
55423;SDS011;41294;42.666;23.350;2023-03-17T12:05:38;4.93;;;3.50;;
55423;SDS011;41294;42.666;23.350;2023-03-17T12:08:08;5.90;;;4.50;;
55423;SDS011;41294;42.666;23.350;2023-03-17T12:13:22;6.43;;;3.90;;
55423;SDS011;41294;42.666;23.350;2023-03-17T12:15:56;8.50;;;4.70;;
55423;SDS011;41294;42.666;23.350;2023-03-17T12:18:33;7.07;;;4.90;;
55423;SDS011;41294;42.666;23.350;2023-03-17T12:21:20;7.83;;;4.07;;
55423;SDS011;41294;42.666;23.350;2023-03-17T12:24:12;4.23;;;3.63;;
55423;SDS011;41294;42.666;23.350;2023-03-17T12:32:34;6.97;;;3.27;;
55423;SDS011;41294;42.666;23.350;2023-03-17T12:35:44;4.80;;;3.60;;
55423;SDS011;41294;42.666;23.350;2023-03-17T12:37:59;5.23;;;3.67;;
55423;SDS011;41294;42.666;23.350;2023-03-17T12:43:35;4.80;;;3.43;;
55423;SDS011;41294;42.666;23.350;2023-03-17T12:52:10;5.67;;;2.70;;
55423;SDS011;41294;42.666;23.350;2023-03-17T12:54:51;3.13;;;2.70;;
55423;SDS011;41294;42.666;23.350;2023-03-17T12:57:21;3.17;;;2.37;;
55423;SDS011;41294;42.666;23.350;2023-03-17T12:59:59;3.87;;;2.37;;
55423;SDS011;41294;42.666;23.350;2023-03-17T13:02:35;5.80;;;2.20;;
55423;SDS011;41294;42.666;23.350;2023-03-17T13:05:07;2.20;;;2.10;;
55423;SDS011;41294;42.666;23.350;2023-03-17T13:07:50;2.30;;;2.10;;
55423;SDS011;41294;42.666;23.350;2023-03-17T13:10:34;2.23;;;2.10;;
55423;SDS011;41294;42.666;23.350;2023-03-17T13:26:10;2.43;;;1.67;;
55423;SDS011;41294;42.666;23.350;2023-03-17T13:31:08;1.70;;;1.60;;
55423;SDS011;41294;42.666;23.350;2023-03-17T13:33:53;2.47;;;2.00;;
55423;SDS011;41294;42.666;23.350;2023-03-17T13:36:26;1.70;;;1.60;;
55423;SDS011;41294;42.666;23.350;2023-03-17T13:47:38;3.93;;;1.90;;
55423;SDS011;41294;42.666;23.350;2023-03-17T13:50:07;1.80;;;1.70;;
55423;SDS011;41294;42.666;23.350;2023-03-17T13:52:45;1.70;;;1.60;;
55423;SDS011;41294;42.666;23.350;2023-03-17T13:57:54;2.80;;;1.63;;
55423;SDS011;41294;42.666;23.350;2023-03-17T14:00:32;1.67;;;1.57;;
55423;SDS011;41294;42.666;23.350;2023-03-17T14:03:00;1.90;;;1.50;;
55423;SDS011;41294;42.666;23.350;2023-03-17T14:05:36;5.23;;;1.73;;
55423;SDS011;41294;42.666;23.350;2023-03-17T14:08:04;2.97;;;2.10;;
55423;SDS011;41294;42.666;23.350;2023-03-17T14:10:55;1.80;;;1.70;;
55423;SDS011;41294;42.666;23.350;2023-03-17T14:13:31;2.30;;;2.10;;
55423;SDS011;41294;42.666;23.350;2023-03-17T14:18:56;2.30;;;2.10;;
55423;SDS011;41294;42.666;23.350;2023-03-17T14:21:29;1.93;;;1.80;;
55423;SDS011;41294;42.666;23.350;2023-03-17T14:23:57;2.07;;;1.87;;
55423;SDS011;41294;42.666;23.350;2023-03-17T14:26:27;2.13;;;1.93;;
55423;SDS011;41294;42.666;23.350;2023-03-17T14:28:57;1.60;;;1.50;;
55423;SDS011;41294;42.666;23.350;2023-03-17T14:31:25;1.80;;;1.70;;
55423;SDS011;41294;42.666;23.350;2023-03-17T14:33:53;2.00;;;1.60;;
55423;SDS011;41294;42.666;23.350;2023-03-17T14:36:22;2.90;;;2.03;;
55423;SDS011;41294;42.666;23.350;2023-03-17T14:38:49;2.20;;;2.00;;
55423;SDS011;41294;42.666;23.350;2023-03-17T14:41:23;2.17;;;1.87;;
55423;SDS011;41294;42.666;23.350;2023-03-17T14:43:52;2.07;;;1.87;;
55423;SDS011;41294;42.666;23.350;2023-03-17T14:46:22;2.60;;;2.20;;
55423;SDS011;41294;42.666;23.350;2023-03-17T14:48:55;2.10;;;2.00;;
55423;SDS011;41294;42.666;23.350;2023-03-17T14:54:01;3.53;;;2.07;;
55423;SDS011;41294;42.666;23.350;2023-03-17T14:57:04;3.83;;;1.80;;
55423;SDS011;41294;42.666;23.350;2023-03-17T15:02:22;2.80;;;2.33;;
55423;SDS011;41294;42.666;23.350;2023-03-17T15:04:56;1.97;;;1.87;;
55423;SDS011;41294;42.666;23.350;2023-03-17T15:07:41;2.80;;;2.37;;
55423;SDS011;41294;42.666;23.350;2023-03-17T15:10:17;3.30;;;2.50;;
55423;SDS011;41294;42.666;23.350;2023-03-17T15:12:46;2.63;;;2.43;;
55423;SDS011;41294;42.666;23.350;2023-03-17T15:15:22;4.33;;;2.77;;
55423;SDS011;41294;42.666;23.350;2023-03-17T15:17:54;2.30;;;2.10;;
55423;SDS011;41294;42.666;23.350;2023-03-17T15:20:22;3.77;;;2.33;;
55423;SDS011;41294;42.666;23.350;2023-03-17T15:22:55;2.83;;;2.50;;
55423;SDS011;41294;42.666;23.350;2023-03-17T15:27:51;4.47;;;3.00;;
55423;SDS011;41294;42.666;23.350;2023-03-17T15:30:16;3.60;;;2.70;;
55423;SDS011;41294;42.666;23.350;2023-03-17T15:32:43;2.40;;;2.20;;
55423;SDS011;41294;42.666;23.350;2023-03-17T15:35:14;2.77;;;2.50;;
55423;SDS011;41294;42.666;23.350;2023-03-17T15:37:39;2.53;;;2.33;;
55423;SDS011;41294;42.666;23.350;2023-03-17T15:40:06;3.43;;;2.87;;
55423;SDS011;41294;42.666;23.350;2023-03-17T15:42:34;4.57;;;3.00;;
55423;SDS011;41294;42.666;23.350;2023-03-17T15:45:02;2.97;;;2.63;;
55423;SDS011;41294;42.666;23.350;2023-03-17T15:47:29;3.63;;;2.73;;
55423;SDS011;41294;42.666;23.350;2023-03-17T15:49:58;5.30;;;2.40;;
55423;SDS011;41294;42.666;23.350;2023-03-17T15:52:26;3.07;;;2.13;;
55423;SDS011;41294;42.666;23.350;2023-03-17T15:54:52;2.63;;;2.23;;
55423;SDS011;41294;42.666;23.350;2023-03-17T15:57:20;2.17;;;2.07;;
55423;SDS011;41294;42.666;23.350;2023-03-17T15:59:45;2.70;;;1.83;;
55423;SDS011;41294;42.666;23.350;2023-03-17T16:02:22;2.00;;;1.90;;
55423;SDS011;41294;42.666;23.350;2023-03-17T16:04:54;2.13;;;1.90;;
55423;SDS011;41294;42.666;23.350;2023-03-17T16:07:20;2.77;;;2.30;;
55423;SDS011;41294;42.666;23.350;2023-03-17T16:09:46;2.00;;;1.90;;
55423;SDS011;41294;42.666;23.350;2023-03-17T16:12:12;2.53;;;2.33;;
55423;SDS011;41294;42.666;23.350;2023-03-17T16:14:38;2.60;;;2.40;;
55423;SDS011;41294;42.666;23.350;2023-03-17T16:17:05;2.80;;;2.60;;
55423;SDS011;41294;42.666;23.350;2023-03-17T16:19:31;2.53;;;2.30;;
55423;SDS011;41294;42.666;23.350;2023-03-17T16:21:59;5.23;;;2.87;;
55423;SDS011;41294;42.666;23.350;2023-03-17T16:24:25;4.37;;;3.00;;
55423;SDS011;41294;42.666;23.350;2023-03-17T16:26:52;4.40;;;2.60;;
55423;SDS011;41294;42.666;23.350;2023-03-17T16:29:18;4.00;;;2.73;;
55423;SDS011;41294;42.666;23.350;2023-03-17T16:31:46;3.53;;;2.67;;
55423;SDS011;41294;42.666;23.350;2023-03-17T16:34:20;3.30;;;2.73;;
55423;SDS011;41294;42.666;23.350;2023-03-17T16:36:47;3.00;;;2.60;;
55423;SDS011;41294;42.666;23.350;2023-03-17T16:39:18;3.37;;;2.70;;
55423;SDS011;41294;42.666;23.350;2023-03-17T16:41:47;3.23;;;2.70;;
55423;SDS011;41294;42.666;23.350;2023-03-17T16:44:14;3.47;;;2.57;;
55423;SDS011;41294;42.666;23.350;2023-03-17T16:46:42;4.70;;;3.00;;
55423;SDS011;41294;42.666;23.350;2023-03-17T16:49:17;3.83;;;3.00;;
55423;SDS011;41294;42.666;23.350;2023-03-17T16:51:44;3.50;;;2.80;;
55423;SDS011;41294;42.666;23.350;2023-03-17T16:54:09;4.47;;;3.43;;
55423;SDS011;41294;42.666;23.350;2023-03-17T16:56:36;6.57;;;3.87;;
55423;SDS011;41294;42.666;23.350;2023-03-17T16:59:02;6.83;;;3.90;;
55423;SDS011;41294;42.666;23.350;2023-03-17T17:01:28;6.33;;;4.10;;
55423;SDS011;41294;42.666;23.350;2023-03-17T17:03:54;4.80;;;4.00;;
55423;SDS011;41294;42.666;23.350;2023-03-17T17:06:20;5.43;;;4.30;;
55423;SDS011;41294;42.666;23.350;2023-03-17T17:08:47;10.00;;;4.70;;
55423;SDS011;41294;42.666;23.350;2023-03-17T17:11:14;10.37;;;4.37;;
55423;SDS011;41294;42.666;23.350;2023-03-17T17:13:41;7.73;;;4.43;;
55423;SDS011;41294;42.666;23.350;2023-03-17T17:16:10;4.30;;;3.37;;
55423;SDS011;41294;42.666;23.350;2023-03-17T17:18:55;3.70;;;3.30;;
55423;SDS011;41294;42.666;23.350;2023-03-17T17:21:21;8.43;;;3.70;;
55423;SDS011;41294;42.666;23.350;2023-03-17T17:23:47;6.63;;;4.17;;
55423;SDS011;41294;42.666;23.350;2023-03-17T17:26:12;8.70;;;4.13;;
55423;SDS011;41294;42.666;23.350;2023-03-17T17:28:38;6.63;;;3.80;;
55423;SDS011;41294;42.666;23.350;2023-03-17T17:31:04;6.13;;;4.07;;
55423;SDS011;41294;42.666;23.350;2023-03-17T17:33:31;7.17;;;4.07;;
55423;SDS011;41294;42.666;23.350;2023-03-17T17:36:05;7.30;;;4.07;;
55423;SDS011;41294;42.666;23.350;2023-03-17T17:38:36;6.63;;;4.20;;
55423;SDS011;41294;42.666;23.350;2023-03-17T17:41:01;8.33;;;3.93;;